sensor_id;sensor_type;location;lat;lon;timestamp;pressure;altitude;pressure_sealevel;temperature
11926;BMP180;6022;48.768;18.608;2022-08-30T00:02:01;98666.50;;;17.69
11926;BMP180;6022;48.768;18.608;2022-08-30T00:04:28;98676.50;;;17.63
11926;BMP180;6022;48.768;18.608;2022-08-30T00:06:55;98674.06;;;17.52
11926;BMP180;6022;48.768;18.608;2022-08-30T00:09:23;98666.22;;;17.44
11926;BMP180;6022;48.768;18.608;2022-08-30T00:11:50;98669.59;;;17.44
11926;BMP180;6022;48.768;18.608;2022-08-30T00:14:17;98674.72;;;17.44
11926;BMP180;6022;48.768;18.608;2022-08-30T00:16:46;98669.84;;;17.41
11926;BMP180;6022;48.768;18.608;2022-08-30T00:19:16;98670.28;;;17.46
11926;BMP180;6022;48.768;18.608;2022-08-30T00:21:43;98679.44;;;17.49
11926;BMP180;6022;48.768;18.608;2022-08-30T00:24:11;98679.19;;;17.52
11926;BMP180;6022;48.768;18.608;2022-08-30T00:26:38;98677.31;;;17.54
11926;BMP180;6022;48.768;18.608;2022-08-30T00:29:05;98674.59;;;17.55
11926;BMP180;6022;48.768;18.608;2022-08-30T00:31:32;98680.56;;;17.56
11926;BMP180;6022;48.768;18.608;2022-08-30T00:34:00;98677.31;;;17.54
11926;BMP180;6022;48.768;18.608;2022-08-30T00:36:28;98675.94;;;17.50
11926;BMP180;6022;48.768;18.608;2022-08-30T00:38:55;98676.34;;;17.55
11926;BMP180;6022;48.768;18.608;2022-08-30T00:41:23;98681.59;;;17.53
11926;BMP180;6022;48.768;18.608;2022-08-30T00:43:50;98675.94;;;17.50
11926;BMP180;6022;48.768;18.608;2022-08-30T00:46:18;98685.25;;;17.41
11926;BMP180;6022;48.768;18.608;2022-08-30T00:48:48;98687.25;;;17.38
11926;BMP180;6022;48.768;18.608;2022-08-30T00:51:19;98679.97;;;17.34
11926;BMP180;6022;48.768;18.608;2022-08-30T00:53:52;98673.50;;;17.30
11926;BMP180;6022;48.768;18.608;2022-08-30T00:56:23;98684.16;;;17.35
11926;BMP180;6022;48.768;18.608;2022-08-30T00:58:54;98672.66;;;17.29
11926;BMP180;6022;48.768;18.608;2022-08-30T01:01:24;98681.16;;;17.20
11926;BMP180;6022;48.768;18.608;2022-08-30T01:03:52;98676.84;;;17.21
11926;BMP180;6022;48.768;18.608;2022-08-30T01:06:20;98672.63;;;17.20
11926;BMP180;6022;48.768;18.608;2022-08-30T01:08:47;98670.34;;;17.17
11926;BMP180;6022;48.768;18.608;2022-08-30T01:11:20;98672.22;;;17.15
11926;BMP180;6022;48.768;18.608;2022-08-30T01:13:51;98674.78;;;17.15
11926;BMP180;6022;48.768;18.608;2022-08-30T01:16:20;98673.13;;;17.14
11926;BMP180;6022;48.768;18.608;2022-08-30T01:18:50;98670.84;;;17.11
11926;BMP180;6022;48.768;18.608;2022-08-30T01:21:47;98672.88;;;17.07
11926;BMP180;6022;48.768;18.608;2022-08-30T01:24:15;98675.53;;;17.06
11926;BMP180;6022;48.768;18.608;2022-08-30T01:26:44;98675.53;;;17.06
11926;BMP180;6022;48.768;18.608;2022-08-30T01:29:17;98672.31;;;17.04
11926;BMP180;6022;48.768;18.608;2022-08-30T01:31:46;98665.81;;;17.00
11926;BMP180;6022;48.768;18.608;2022-08-30T01:34:13;98668.91;;;16.94
11926;BMP180;6022;48.768;18.608;2022-08-30T01:36:44;98659.72;;;16.92
11926;BMP180;6022;48.768;18.608;2022-08-30T01:39:16;98666.72;;;16.90
11926;BMP180;6022;48.768;18.608;2022-08-30T01:41:44;98665.78;;;16.91
11926;BMP180;6022;48.768;18.608;2022-08-30T01:44:13;98666.03;;;16.88
11926;BMP180;6022;48.768;18.608;2022-08-30T01:46:45;98662.13;;;16.84
11926;BMP180;6022;48.768;18.608;2022-08-30T01:49:16;98666.00;;;16.78
11926;BMP180;6022;48.768;18.608;2022-08-30T01:51:54;98670.56;;;16.75
11926;BMP180;6022;48.768;18.608;2022-08-30T01:54:30;98670.72;;;16.73
11926;BMP180;6022;48.768;18.608;2022-08-30T01:57:09;98665.91;;;16.60
11926;BMP180;6022;48.768;18.608;2022-08-30T01:59:40;98670.47;;;16.56
11926;BMP180;6022;48.768;18.608;2022-08-30T02:02:09;98664.84;;;16.53
11926;BMP180;6022;48.768;18.608;2022-08-30T02:04:37;98666.16;;;16.47
11926;BMP180;6022;48.768;18.608;2022-08-30T02:07:04;98669.75;;;16.45
11926;BMP180;6022;48.768;18.608;2022-08-30T02:09:32;98667.72;;;16.39
11926;BMP180;6022;48.768;18.608;2022-08-30T02:12:00;98656.66;;;16.38
11926;BMP180;6022;48.768;18.608;2022-08-30T02:14:27;98654.72;;;16.31
11926;BMP180;6022;48.768;18.608;2022-08-30T02:16:54;98655.81;;;16.28
11926;BMP180;6022;48.768;18.608;2022-08-30T02:19:22;98656.84;;;16.26
11926;BMP180;6022;48.768;18.608;2022-08-30T02:21:50;98657.34;;;16.20
11926;BMP180;6022;48.768;18.608;2022-08-30T02:24:17;98657.34;;;16.20
11926;BMP180;6022;48.768;18.608;2022-08-30T02:26:45;98653.88;;;16.21
11926;BMP180;6022;48.768;18.608;2022-08-30T02:29:12;98658.03;;;16.22
11926;BMP180;6022;48.768;18.608;2022-08-30T02:31:40;98656.19;;;16.13
11926;BMP180;6022;48.768;18.608;2022-08-30T02:34:07;98666.19;;;16.16
11926;BMP180;6022;48.768;18.608;2022-08-30T02:36:35;98662.38;;;16.11
11926;BMP180;6022;48.768;18.608;2022-08-30T02:39:03;98667.63;;;16.09
11926;BMP180;6022;48.768;18.608;2022-08-30T02:41:30;98661.81;;;16.07
11926;BMP180;6022;48.768;18.608;2022-08-30T02:43:58;98665.84;;;16.00
11926;BMP180;6022;48.768;18.608;2022-08-30T02:46:27;98670.13;;;16.00
11926;BMP180;6022;48.768;18.608;2022-08-30T02:48:59;98668.84;;;15.94
11926;BMP180;6022;48.768;18.608;2022-08-30T02:51:47;98661.50;;;16.01
11926;BMP180;6022;48.768;18.608;2022-08-30T02:54:16;98672.00;;;15.98
11926;BMP180;6022;48.768;18.608;2022-08-30T02:56:46;98664.44;;;15.96
11926;BMP180;6022;48.768;18.608;2022-08-30T02:59:16;98669.31;;;15.99
11926;BMP180;6022;48.768;18.608;2022-08-30T03:01:44;98667.06;;;16.06
11926;BMP180;6022;48.768;18.608;2022-08-30T03:04:12;98668.75;;;15.96
11926;BMP180;6022;48.768;18.608;2022-08-30T03:06:41;98662.53;;;15.89
11926;BMP180;6022;48.768;18.608;2022-08-30T03:09:08;98658.13;;;15.80
11926;BMP180;6022;48.768;18.608;2022-08-30T03:11:35;98666.16;;;15.76
11926;BMP180;6022;48.768;18.608;2022-08-30T03:14:04;98663.59;;;15.76
11926;BMP180;6022;48.768;18.608;2022-08-30T03:16:31;98665.66;;;15.61
11926;BMP180;6022;48.768;18.608;2022-08-30T03:18:59;98668.56;;;15.57
11926;BMP180;6022;48.768;18.608;2022-08-30T03:21:26;98669.50;;;15.56
11926;BMP180;6022;48.768;18.608;2022-08-30T03:23:53;98667.56;;;15.49
11926;BMP180;6022;48.768;18.608;2022-08-30T03:26:21;98667.44;;;15.50
11926;BMP180;6022;48.768;18.608;2022-08-30T03:28:48;98673.25;;;15.52
11926;BMP180;6022;48.768;18.608;2022-08-30T03:31:16;98662.56;;;15.47
11926;BMP180;6022;48.768;18.608;2022-08-30T03:33:43;98666.88;;;15.47
11926;BMP180;6022;48.768;18.608;2022-08-30T03:36:11;98660.81;;;15.48
11926;BMP180;6022;48.768;18.608;2022-08-30T03:38:39;98671.28;;;15.45
11926;BMP180;6022;48.768;18.608;2022-08-30T03:41:07;98661.28;;;15.42
11926;BMP180;6022;48.768;18.608;2022-08-30T03:43:35;98668.84;;;15.43
11926;BMP180;6022;48.768;18.608;2022-08-30T03:46:03;98669.53;;;15.45
11926;BMP180;6022;48.768;18.608;2022-08-30T03:48:31;98682.53;;;15.42
11926;BMP180;6022;48.768;18.608;2022-08-30T03:50:58;98678.06;;;15.35
11926;BMP180;6022;48.768;18.608;2022-08-30T03:53:25;98677.59;;;15.30
11926;BMP180;6022;48.768;18.608;2022-08-30T03:55:53;98676.41;;;15.34
11926;BMP180;6022;48.768;18.608;2022-08-30T03:58:23;98670.50;;;15.33
11926;BMP180;6022;48.768;18.608;2022-08-30T04:00:50;98673.19;;;15.32
11926;BMP180;6022;48.768;18.608;2022-08-30T04:03:18;98677.91;;;15.36
11926;BMP180;6022;48.768;18.608;2022-08-30T04:05:53;98677.13;;;15.36
11926;BMP180;6022;48.768;18.608;2022-08-30T04:08:22;98677.69;;;15.39
11926;BMP180;6022;48.768;18.608;2022-08-30T04:10:49;98694.63;;;15.40
11926;BMP180;6022;48.768;18.608;2022-08-30T04:13:19;98690.94;;;15.44
11926;BMP180;6022;48.768;18.608;2022-08-30T04:15:47;98695.91;;;15.46
11926;BMP180;6022;48.768;18.608;2022-08-30T04:18:15;98690.69;;;15.47
11926;BMP180;6022;48.768;18.608;2022-08-30T04:20:42;98688.13;;;15.47
11926;BMP180;6022;48.768;18.608;2022-08-30T04:23:10;98693.94;;;15.49
11926;BMP180;6022;48.768;18.608;2022-08-30T04:25:40;98701.25;;;15.53
11926;BMP180;6022;48.768;18.608;2022-08-30T04:28:07;98701.56;;;15.60
11926;BMP180;6022;48.768;18.608;2022-08-30T04:30:43;98704.09;;;15.71
11926;BMP180;6022;48.768;18.608;2022-08-30T04:33:12;98710.59;;;15.75
11926;BMP180;6022;48.768;18.608;2022-08-30T04:35:46;98716.03;;;15.81
11926;BMP180;6022;48.768;18.608;2022-08-30T04:38:16;98724.06;;;15.77
11926;BMP180;6022;48.768;18.608;2022-08-30T04:40:45;98727.91;;;15.82
11926;BMP180;6022;48.768;18.608;2022-08-30T04:43:15;98721.22;;;15.90
11926;BMP180;6022;48.768;18.608;2022-08-30T04:45:43;98726.50;;;16.09
11926;BMP180;6022;48.768;18.608;2022-08-30T04:48:10;98731.72;;;16.39
11926;BMP180;6022;48.768;18.608;2022-08-30T04:50:38;98723.94;;;16.90
11926;BMP180;6022;48.768;18.608;2022-08-30T04:53:05;98728.09;;;17.60
11926;BMP180;6022;48.768;18.608;2022-08-30T04:55:33;98723.19;;;18.60
11926;BMP180;6022;48.768;18.608;2022-08-30T04:58:00;98723.25;;;20.10
11926;BMP180;6022;48.768;18.608;2022-08-30T05:00:32;98723.28;;;20.78
11926;BMP180;6022;48.768;18.608;2022-08-30T05:03:00;98724.66;;;21.72
11926;BMP180;6022;48.768;18.608;2022-08-30T05:05:27;98717.75;;;22.51
11926;BMP180;6022;48.768;18.608;2022-08-30T05:08:10;98729.00;;;23.44
11926;BMP180;6022;48.768;18.608;2022-08-30T05:10:41;98724.81;;;23.73
11926;BMP180;6022;48.768;18.608;2022-08-30T05:13:10;98719.88;;;23.86
11926;BMP180;6022;48.768;18.608;2022-08-30T05:15:38;98718.69;;;23.96
11926;BMP180;6022;48.768;18.608;2022-08-30T05:18:09;98721.53;;;24.23
11926;BMP180;6022;48.768;18.608;2022-08-30T05:20:42;98723.09;;;24.83
11926;BMP180;6022;48.768;18.608;2022-08-30T05:23:09;98721.94;;;25.28
11926;BMP180;6022;48.768;18.608;2022-08-30T05:25:40;98721.09;;;25.71
11926;BMP180;6022;48.768;18.608;2022-08-30T05:28:09;98723.88;;;25.69
11926;BMP180;6022;48.768;18.608;2022-08-30T05:30:37;98732.38;;;25.98
11926;BMP180;6022;48.768;18.608;2022-08-30T05:33:04;98723.84;;;26.25
11926;BMP180;6022;48.768;18.608;2022-08-30T05:35:32;98714.13;;;26.60
11926;BMP180;6022;48.768;18.608;2022-08-30T05:38:00;98707.84;;;26.49
11926;BMP180;6022;48.768;18.608;2022-08-30T05:40:28;98712.34;;;26.88
11926;BMP180;6022;48.768;18.608;2022-08-30T05:42:56;98721.44;;;27.38
11926;BMP180;6022;48.768;18.608;2022-08-30T05:45:23;98715.22;;;27.99
11926;BMP180;6022;48.768;18.608;2022-08-30T05:47:51;98719.25;;;28.01
11926;BMP180;6022;48.768;18.608;2022-08-30T05:50:24;98719.47;;;28.38
11926;BMP180;6022;48.768;18.608;2022-08-30T05:52:52;98721.59;;;27.90
11926;BMP180;6022;48.768;18.608;2022-08-30T05:55:19;98722.06;;;28.13
11926;BMP180;6022;48.768;18.608;2022-08-30T05:57:47;98723.69;;;28.52
11926;BMP180;6022;48.768;18.608;2022-08-30T06:00:17;98717.88;;;29.45
11926;BMP180;6022;48.768;18.608;2022-08-30T06:02:45;98714.19;;;30.33
11926;BMP180;6022;48.768;18.608;2022-08-30T06:05:12;98709.41;;;30.17
11926;BMP180;6022;48.768;18.608;2022-08-30T06:07:41;98713.50;;;31.03
11926;BMP180;6022;48.768;18.608;2022-08-30T06:10:09;98713.31;;;30.87
11926;BMP180;6022;48.768;18.608;2022-08-30T06:12:38;98720.81;;;29.98
11926;BMP180;6022;48.768;18.608;2022-08-30T06:15:07;98717.66;;;28.84
11926;BMP180;6022;48.768;18.608;2022-08-30T06:17:35;98713.44;;;29.52
11926;BMP180;6022;48.768;18.608;2022-08-30T06:20:03;98725.41;;;29.78
11926;BMP180;6022;48.768;18.608;2022-08-30T06:22:31;98718.06;;;28.61
11926;BMP180;6022;48.768;18.608;2022-08-30T06:24:59;98723.22;;;29.06
11926;BMP180;6022;48.768;18.608;2022-08-30T06:27:26;98724.13;;;30.18
11926;BMP180;6022;48.768;18.608;2022-08-30T06:29:53;98718.13;;;30.11
11926;BMP180;6022;48.768;18.608;2022-08-30T06:32:21;98713.00;;;30.29
11926;BMP180;6022;48.768;18.608;2022-08-30T06:34:49;98720.69;;;30.48
11926;BMP180;6022;48.768;18.608;2022-08-30T06:37:17;98714.50;;;29.38
11926;BMP180;6022;48.768;18.608;2022-08-30T06:39:57;98719.47;;;28.25
11926;BMP180;6022;48.768;18.608;2022-08-30T06:42:26;98713.75;;;27.31
11926;BMP180;6022;48.768;18.608;2022-08-30T06:45:00;98723.53;;;26.82
11926;BMP180;6022;48.768;18.608;2022-08-30T06:47:28;98714.50;;;27.58
11926;BMP180;6022;48.768;18.608;2022-08-30T06:49:57;98720.22;;;26.74
11926;BMP180;6022;48.768;18.608;2022-08-30T06:52:24;98719.09;;;27.50
11926;BMP180;6022;48.768;18.608;2022-08-30T06:54:54;98718.84;;;28.30
11926;BMP180;6022;48.768;18.608;2022-08-30T06:57:25;98725.84;;;28.93
11926;BMP180;6022;48.768;18.608;2022-08-30T06:59:56;98725.31;;;29.48
11926;BMP180;6022;48.768;18.608;2022-08-30T07:02:25;98726.97;;;29.79
11926;BMP180;6022;48.768;18.608;2022-08-30T07:04:52;98724.28;;;30.71
11926;BMP180;6022;48.768;18.608;2022-08-30T07:07:21;98721.09;;;30.69
11926;BMP180;6022;48.768;18.608;2022-08-30T07:09:49;98720.13;;;31.59
11926;BMP180;6022;48.768;18.608;2022-08-30T07:12:16;98717.78;;;30.80
11926;BMP180;6022;48.768;18.608;2022-08-30T07:14:44;98728.19;;;30.45
11926;BMP180;6022;48.768;18.608;2022-08-30T07:17:11;98721.09;;;30.93
11926;BMP180;6022;48.768;18.608;2022-08-30T07:20:02;98717.22;;;31.31
11926;BMP180;6022;48.768;18.608;2022-08-30T07:22:32;98721.28;;;29.95
11926;BMP180;6022;48.768;18.608;2022-08-30T07:24:59;98725.50;;;30.27
11926;BMP180;6022;48.768;18.608;2022-08-30T07:27:27;98713.22;;;31.94
11926;BMP180;6022;48.768;18.608;2022-08-30T07:29:55;98729.19;;;33.46
11926;BMP180;6022;48.768;18.608;2022-08-30T07:32:24;98724.94;;;35.14
11926;BMP180;6022;48.768;18.608;2022-08-30T07:34:52;98728.53;;;35.93
11926;BMP180;6022;48.768;18.608;2022-08-30T07:37:19;98715.84;;;36.84
11926;BMP180;6022;48.768;18.608;2022-08-30T07:39:46;98731.34;;;36.70
11926;BMP180;6022;48.768;18.608;2022-08-30T07:42:15;98733.81;;;36.51
11926;BMP180;6022;48.768;18.608;2022-08-30T07:44:42;98728.19;;;36.11
11926;BMP180;6022;48.768;18.608;2022-08-30T07:47:10;98734.59;;;36.82
11926;BMP180;6022;48.768;18.608;2022-08-30T07:49:37;98733.00;;;37.93
11926;BMP180;6022;48.768;18.608;2022-08-30T07:52:05;98727.94;;;39.05
11926;BMP180;6022;48.768;18.608;2022-08-30T07:54:32;98730.63;;;38.90
11926;BMP180;6022;48.768;18.608;2022-08-30T07:57:00;98726.44;;;38.45
11926;BMP180;6022;48.768;18.608;2022-08-30T07:59:27;98726.31;;;39.24
11926;BMP180;6022;48.768;18.608;2022-08-30T08:02:00;98726.94;;;38.71
11926;BMP180;6022;48.768;18.608;2022-08-30T08:04:27;98732.47;;;38.99
11926;BMP180;6022;48.768;18.608;2022-08-30T08:06:55;98735.72;;;39.49
11926;BMP180;6022;48.768;18.608;2022-08-30T08:09:22;98732.31;;;40.30
11926;BMP180;6022;48.768;18.608;2022-08-30T08:11:49;98736.66;;;40.82
11926;BMP180;6022;48.768;18.608;2022-08-30T08:14:17;98739.44;;;40.01
11926;BMP180;6022;48.768;18.608;2022-08-30T08:16:44;98743.63;;;38.92
11926;BMP180;6022;48.768;18.608;2022-08-30T08:19:12;98743.50;;;39.36
11926;BMP180;6022;48.768;18.608;2022-08-30T08:21:40;98723.59;;;39.29
11926;BMP180;6022;48.768;18.608;2022-08-30T08:24:08;98728.19;;;39.08
11926;BMP180;6022;48.768;18.608;2022-08-30T08:26:36;98738.16;;;39.41
11926;BMP180;6022;48.768;18.608;2022-08-30T08:29:08;98734.63;;;39.60
11926;BMP180;6022;48.768;18.608;2022-08-30T08:31:36;98726.91;;;39.69
11926;BMP180;6022;48.768;18.608;2022-08-30T08:34:04;98735.09;;;40.15
11926;BMP180;6022;48.768;18.608;2022-08-30T08:36:34;98735.00;;;39.34
11926;BMP180;6022;48.768;18.608;2022-08-30T08:39:05;98735.00;;;39.34
11926;BMP180;6022;48.768;18.608;2022-08-30T08:45:10;98732.50;;;39.62
11926;BMP180;6022;48.768;18.608;2022-08-30T08:50:33;98732.31;;;39.92
11926;BMP180;6022;48.768;18.608;2022-08-30T08:53:21;98727.03;;;41.56
11926;BMP180;6022;48.768;18.608;2022-08-30T08:56:16;98730.78;;;41.08
11926;BMP180;6022;48.768;18.608;2022-08-30T08:58:52;98729.66;;;40.30
11926;BMP180;6022;48.768;18.608;2022-08-30T09:01:25;98729.19;;;39.85
11926;BMP180;6022;48.768;18.608;2022-08-30T09:03:56;98725.19;;;40.58
11926;BMP180;6022;48.768;18.608;2022-08-30T09:09:12;98724.03;;;40.03
11926;BMP180;6022;48.768;18.608;2022-08-30T09:11:41;98716.66;;;41.13
11926;BMP180;6022;48.768;18.608;2022-08-30T09:14:22;98718.97;;;41.61
11926;BMP180;6022;48.768;18.608;2022-08-30T09:17:25;98713.34;;;41.44
11926;BMP180;6022;48.768;18.608;2022-08-30T09:22:36;98712.00;;;37.67
11926;BMP180;6022;48.768;18.608;2022-08-30T09:27:44;98707.22;;;39.07
11926;BMP180;6022;48.768;18.608;2022-08-30T09:32:52;98702.84;;;39.40
11926;BMP180;6022;48.768;18.608;2022-08-30T09:38:31;98708.88;;;39.51
11926;BMP180;6022;48.768;18.608;2022-08-30T09:44:25;98704.09;;;38.80
11926;BMP180;6022;48.768;18.608;2022-08-30T09:46:59;98694.06;;;38.53
11926;BMP180;6022;48.768;18.608;2022-08-30T09:52:11;98692.22;;;36.77
11926;BMP180;6022;48.768;18.608;2022-08-30T09:57:44;98696.47;;;37.19
11926;BMP180;6022;48.768;18.608;2022-08-30T10:05:51;98670.03;;;36.78
11926;BMP180;6022;48.768;18.608;2022-08-30T10:08:49;98671.91;;;36.83
11926;BMP180;6022;48.768;18.608;2022-08-30T10:14:10;98668.19;;;36.79
11926;BMP180;6022;48.768;18.608;2022-08-30T10:20:11;98669.22;;;37.43
11926;BMP180;6022;48.768;18.608;2022-08-30T10:22:51;98660.63;;;37.87
11926;BMP180;6022;48.768;18.608;2022-08-30T10:25:32;98664.53;;;37.60
11926;BMP180;6022;48.768;18.608;2022-08-30T10:28:17;98656.13;;;36.57
11926;BMP180;6022;48.768;18.608;2022-08-30T10:31:02;98655.06;;;35.64
11926;BMP180;6022;48.768;18.608;2022-08-30T10:33:39;98652.69;;;34.78
11926;BMP180;6022;48.768;18.608;2022-08-30T10:36:11;98656.81;;;34.90
11926;BMP180;6022;48.768;18.608;2022-08-30T10:39:00;98648.06;;;35.27
11926;BMP180;6022;48.768;18.608;2022-08-30T10:41:42;98651.66;;;35.43
11926;BMP180;6022;48.768;18.608;2022-08-30T10:44:25;98649.78;;;35.90
11926;BMP180;6022;48.768;18.608;2022-08-30T10:50:06;98645.53;;;35.85
11926;BMP180;6022;48.768;18.608;2022-08-30T10:55:33;98639.78;;;35.45
11926;BMP180;6022;48.768;18.608;2022-08-30T10:58:05;98632.88;;;35.91
11926;BMP180;6022;48.768;18.608;2022-08-30T11:07:06;98622.72;;;35.52
11926;BMP180;6022;48.768;18.608;2022-08-30T11:13:09;98619.84;;;36.47
11926;BMP180;6022;48.768;18.608;2022-08-30T11:16:05;98616.06;;;36.38
11926;BMP180;6022;48.768;18.608;2022-08-30T11:24:22;98612.69;;;36.48
11926;BMP180;6022;48.768;18.608;2022-08-30T11:26:57;98608.50;;;37.03
11926;BMP180;6022;48.768;18.608;2022-08-30T11:31:59;98607.88;;;36.40
11926;BMP180;6022;48.768;18.608;2022-08-30T11:37:38;98607.22;;;35.61
11926;BMP180;6022;48.768;18.608;2022-08-30T11:42:48;98609.75;;;36.08
11926;BMP180;6022;48.768;18.608;2022-08-30T11:47:57;98595.91;;;35.34
11926;BMP180;6022;48.768;18.608;2022-08-30T11:56:04;98589.91;;;35.70
11926;BMP180;6022;48.768;18.608;2022-08-30T11:58:48;98587.91;;;35.82
11926;BMP180;6022;48.768;18.608;2022-08-30T12:01:34;98579.75;;;35.62
11926;BMP180;6022;48.768;18.608;2022-08-30T12:07:02;98590.13;;;35.99
11926;BMP180;6022;48.768;18.608;2022-08-30T12:12:43;98580.22;;;35.54
11926;BMP180;6022;48.768;18.608;2022-08-30T12:15:57;98579.69;;;35.52
11926;BMP180;6022;48.768;18.608;2022-08-30T12:18:42;98577.66;;;35.64
11926;BMP180;6022;48.768;18.608;2022-08-30T12:24:03;98574.69;;;35.82
11926;BMP180;6022;48.768;18.608;2022-08-30T12:26:47;98559.31;;;35.48
11926;BMP180;6022;48.768;18.608;2022-08-30T12:29:33;98558.38;;;35.89
11926;BMP180;6022;48.768;18.608;2022-08-30T12:32:14;98561.06;;;35.99
11926;BMP180;6022;48.768;18.608;2022-08-30T12:37:25;98546.44;;;35.82
11926;BMP180;6022;48.768;18.608;2022-08-30T12:40:10;98547.53;;;35.60
11926;BMP180;6022;48.768;18.608;2022-08-30T12:45:20;98542.47;;;35.80
11926;BMP180;6022;48.768;18.608;2022-08-30T12:48:03;98537.44;;;35.52
11926;BMP180;6022;48.768;18.608;2022-08-30T12:50:55;98534.59;;;35.58
11926;BMP180;6022;48.768;18.608;2022-08-30T12:53:34;98533.47;;;34.76
11926;BMP180;6022;48.768;18.608;2022-08-30T12:56:09;98537.63;;;34.13
11926;BMP180;6022;48.768;18.608;2022-08-30T12:58:46;98535.47;;;34.10
11926;BMP180;6022;48.768;18.608;2022-08-30T13:01:33;98529.78;;;34.34
11926;BMP180;6022;48.768;18.608;2022-08-30T13:04:12;98532.81;;;34.27
11926;BMP180;6022;48.768;18.608;2022-08-30T13:06:57;98529.06;;;32.97
11926;BMP180;6022;48.768;18.608;2022-08-30T13:09:33;98526.25;;;32.87
11926;BMP180;6022;48.768;18.608;2022-08-30T13:12:08;98524.81;;;33.24
11926;BMP180;6022;48.768;18.608;2022-08-30T13:14:42;98523.53;;;33.38
11926;BMP180;6022;48.768;18.608;2022-08-30T13:17:23;98522.56;;;33.16
11926;BMP180;6022;48.768;18.608;2022-08-30T13:20:26;98517.19;;;33.22
11926;BMP180;6022;48.768;18.608;2022-08-30T13:23:06;98520.03;;;33.21
11926;BMP180;6022;48.768;18.608;2022-08-30T13:25:36;98518.25;;;33.10
11926;BMP180;6022;48.768;18.608;2022-08-30T13:28:06;98516.44;;;32.72
11926;BMP180;6022;48.768;18.608;2022-08-30T13:30:34;98516.13;;;32.68
11926;BMP180;6022;48.768;18.608;2022-08-30T13:33:02;98509.69;;;32.76
11926;BMP180;6022;48.768;18.608;2022-08-30T13:35:30;98500.34;;;32.18
11926;BMP180;6022;48.768;18.608;2022-08-30T13:38:01;98510.25;;;32.27
11926;BMP180;6022;48.768;18.608;2022-08-30T13:40:28;98498.31;;;31.97
11926;BMP180;6022;48.768;18.608;2022-08-30T13:42:56;98497.63;;;31.90
11926;BMP180;6022;48.768;18.608;2022-08-30T13:45:25;98500.44;;;31.66
11926;BMP180;6022;48.768;18.608;2022-08-30T13:48:09;98499.31;;;31.85
11926;BMP180;6022;48.768;18.608;2022-08-30T13:50:37;98498.38;;;31.79
11926;BMP180;6022;48.768;18.608;2022-08-30T13:53:05;98499.31;;;31.73
11926;BMP180;6022;48.768;18.608;2022-08-30T13:55:38;98496.31;;;31.70
11926;BMP180;6022;48.768;18.608;2022-08-30T13:58:07;98498.50;;;31.62
11926;BMP180;6022;48.768;18.608;2022-08-30T14:00:36;98494.38;;;31.43
11926;BMP180;6022;48.768;18.608;2022-08-30T14:03:04;98483.63;;;31.33
11926;BMP180;6022;48.768;18.608;2022-08-30T14:05:36;98486.44;;;31.31
11926;BMP180;6022;48.768;18.608;2022-08-30T14:08:29;98479.19;;;31.04
11926;BMP180;6022;48.768;18.608;2022-08-30T14:11:18;98486.06;;;30.41
11926;BMP180;6022;48.768;18.608;2022-08-30T14:13:48;98470.19;;;30.53
11926;BMP180;6022;48.768;18.608;2022-08-30T14:16:39;98472.53;;;30.79
11926;BMP180;6022;48.768;18.608;2022-08-30T14:19:13;98478.72;;;30.78
11926;BMP180;6022;48.768;18.608;2022-08-30T14:21:44;98471.56;;;30.74
11926;BMP180;6022;48.768;18.608;2022-08-30T14:24:15;98470.81;;;30.67
11926;BMP180;6022;48.768;18.608;2022-08-30T14:26:49;98469.69;;;30.45
11926;BMP180;6022;48.768;18.608;2022-08-30T14:29:24;98473.41;;;30.38
11926;BMP180;6022;48.768;18.608;2022-08-30T14:31:56;98468.91;;;30.45
11926;BMP180;6022;48.768;18.608;2022-08-30T14:34:26;98474.75;;;30.29
11926;BMP180;6022;48.768;18.608;2022-08-30T14:36:54;98470.28;;;30.29
11926;BMP180;6022;48.768;18.608;2022-08-30T14:39:23;98466.53;;;30.19
11926;BMP180;6022;48.768;18.608;2022-08-30T14:41:53;98472.22;;;29.98
11926;BMP180;6022;48.768;18.608;2022-08-30T14:44:23;98466.34;;;30.03
11926;BMP180;6022;48.768;18.608;2022-08-30T14:46:53;98469.59;;;29.98
11926;BMP180;6022;48.768;18.608;2022-08-30T14:49:21;98460.13;;;29.79
11926;BMP180;6022;48.768;18.608;2022-08-30T14:51:49;98469.88;;;29.66
11926;BMP180;6022;48.768;18.608;2022-08-30T14:54:21;98468.06;;;29.67
11926;BMP180;6022;48.768;18.608;2022-08-30T14:56:52;98463.63;;;29.73
11926;BMP180;6022;48.768;18.608;2022-08-30T14:59:20;98464.88;;;29.65
11926;BMP180;6022;48.768;18.608;2022-08-30T15:01:48;98459.00;;;29.69
11926;BMP180;6022;48.768;18.608;2022-08-30T15:04:16;98459.81;;;29.69
11926;BMP180;6022;48.768;18.608;2022-08-30T15:06:48;98459.41;;;29.72
11926;BMP180;6022;48.768;18.608;2022-08-30T15:09:20;98459.13;;;29.56
11926;BMP180;6022;48.768;18.608;2022-08-30T15:11:52;98455.34;;;29.52
11926;BMP180;6022;48.768;18.608;2022-08-30T15:14:23;98453.59;;;29.46
11926;BMP180;6022;48.768;18.608;2022-08-30T15:16:53;98452.63;;;29.41
11926;BMP180;6022;48.768;18.608;2022-08-30T15:19:21;98444.09;;;29.28
11926;BMP180;6022;48.768;18.608;2022-08-30T15:21:50;98454.22;;;29.11
11926;BMP180;6022;48.768;18.608;2022-08-30T15:24:21;98446.88;;;29.02
11926;BMP180;6022;48.768;18.608;2022-08-30T15:26:57;98446.88;;;28.95
11926;BMP180;6022;48.768;18.608;2022-08-30T15:29:26;98441.31;;;28.92
11926;BMP180;6022;48.768;18.608;2022-08-30T15:31:59;98438.91;;;28.91
11926;BMP180;6022;48.768;18.608;2022-08-30T15:34:27;98441.19;;;28.81
11926;BMP180;6022;48.768;18.608;2022-08-30T15:36:55;98426.31;;;28.81
11926;BMP180;6022;48.768;18.608;2022-08-30T15:39:23;98436.38;;;28.78
11926;BMP180;6022;48.768;18.608;2022-08-30T15:41:51;98438.97;;;28.78
11926;BMP180;6022;48.768;18.608;2022-08-30T15:44:24;98437.22;;;28.72
11926;BMP180;6022;48.768;18.608;2022-08-30T15:46:52;98427.63;;;28.66
11926;BMP180;6022;48.768;18.608;2022-08-30T15:49:22;98432.88;;;28.53
11926;BMP180;6022;48.768;18.608;2022-08-30T15:51:51;98433.53;;;28.42
11926;BMP180;6022;48.768;18.608;2022-08-30T15:54:22;98437.75;;;28.43
11926;BMP180;6022;48.768;18.608;2022-08-30T15:56:50;98431.34;;;28.33
11926;BMP180;6022;48.768;18.608;2022-08-30T15:59:28;98435.41;;;28.22
11926;BMP180;6022;48.768;18.608;2022-08-30T16:01:56;98441.28;;;28.12
11926;BMP180;6022;48.768;18.608;2022-08-30T16:04:25;98426.63;;;27.98
11926;BMP180;6022;48.768;18.608;2022-08-30T16:06:52;98430.50;;;27.70